createdAt,value
2022-10-16T00:00:04.139Z,7.47
2022-10-16T00:01:13.021Z,8.55
2022-10-16T00:02:26.981Z,6.80
2022-10-16T00:03:42.578Z,9.57
2022-10-16T00:04:52.541Z,6.95
2022-10-16T00:06:02.879Z,6.22
2022-10-16T00:07:06.543Z,2.97
2022-10-16T00:08:15.730Z,6.20
2022-10-16T00:09:20.125Z,4.75
2022-10-16T00:10:24.660Z,5.88
2022-10-16T00:11:40.067Z,9.82
2022-10-16T00:12:45.650Z,5.32
2022-10-16T00:14:15.009Z,5.07
2022-10-16T00:15:19.018Z,9.02
2022-10-16T00:16:23.329Z,7.25
2022-10-16T00:17:30.029Z,4.95
2022-10-16T00:18:34.936Z,5.45
2022-10-16T00:19:41.899Z,4.35
2022-10-16T00:20:51.586Z,5.13
2022-10-16T00:21:58.315Z,5.25
2022-10-16T00:23:09.390Z,7.07
2022-10-16T00:24:13.180Z,5.45
2022-10-16T00:25:17.829Z,6.53
2022-10-16T00:26:22.783Z,6.80
2022-10-16T00:27:26.382Z,7.10
2022-10-16T00:28:30.413Z,6.90
2022-10-16T00:29:35.724Z,5.45
2022-10-16T00:30:43.256Z,6.45
2022-10-16T00:31:46.846Z,5.88
2022-10-16T00:32:50.422Z,4.35
2022-10-16T00:33:54.193Z,4.95
2022-10-16T00:34:57.922Z,4.13
2022-10-16T00:36:04.274Z,5.95
2022-10-16T00:37:08.487Z,4.38
2022-10-16T00:38:12.709Z,5.13
2022-10-16T00:39:17.749Z,6.07
2022-10-16T00:40:26.222Z,8.98
2022-10-16T00:41:31.141Z,10.52
2022-10-16T00:42:39.019Z,4.55
2022-10-16T00:44:01.675Z,7.90
2022-10-16T00:45:07.160Z,4.82
2022-10-16T00:46:43.470Z,8.85
2022-10-16T00:47:52.782Z,6.35
2022-10-16T00:49:18.019Z,6.30
2022-10-16T00:50:32.796Z,4.28
2022-10-16T00:51:45.421Z,7.10
2022-10-16T00:52:55.302Z,4.57
2022-10-16T00:54:00.728Z,5.78
2022-10-16T00:55:09.797Z,8.48
2022-10-16T00:56:15.073Z,5.55
2022-10-16T00:57:19.504Z,6.35
2022-10-16T00:58:23.552Z,4.57
2022-10-16T00:59:47.051Z,8.70
2022-10-16T01:00:51.539Z,9.93
2022-10-16T01:01:58.026Z,5.55
2022-10-16T01:03:26.085Z,9.27
2022-10-16T01:04:39.139Z,7.13
2022-10-16T01:06:03.616Z,9.15
2022-10-16T01:07:26.955Z,8.10
2022-10-16T01:09:10.499Z,5.90
2022-10-16T01:10:42.894Z,8.43
2022-10-16T01:12:05.667Z,5.85
2022-10-16T01:13:23.437Z,5.43
2022-10-16T01:14:48.029Z,7.22
2022-10-16T01:16:24.609Z,4.55
2022-10-16T01:17:54.415Z,4.72
2022-10-16T01:19:13.940Z,10.10
2022-10-16T01:20:27.220Z,7.65
2022-10-16T01:21:40.376Z,6.85
2022-10-16T01:23:21.766Z,10.38
2022-10-16T01:24:50.711Z,11.75
2022-10-16T01:26:17.226Z,9.35
2022-10-16T01:27:31.940Z,6.72
2022-10-16T01:29:11.577Z,8.93
2022-10-16T01:30:32.156Z,6.60
2022-10-16T01:31:42.640Z,6.95
2022-10-16T01:33:22.378Z,10.98
2022-10-16T01:34:38.505Z,9.35
2022-10-16T01:35:53.561Z,14.48
2022-10-16T01:37:09.540Z,8.23
2022-10-16T01:38:39.219Z,10.68
2022-10-16T01:39:48.686Z,6.53
2022-10-16T01:41:02.527Z,9.43
2022-10-16T01:42:17.261Z,6.85
2022-10-16T01:43:28.216Z,9.10
2022-10-16T01:44:37.605Z,6.60
2022-10-16T01:45:47.953Z,6.63
2022-10-16T01:46:55.236Z,8.40
2022-10-16T01:48:05.278Z,9.43
2022-10-16T01:49:13.878Z,6.55
2022-10-16T01:50:22.735Z,10.15
2022-10-16T01:51:30.983Z,9.95
2022-10-16T01:52:46.443Z,6.28
2022-10-16T01:53:58.702Z,10.57
2022-10-16T01:55:08.331Z,7.10
2022-10-16T01:56:17.632Z,9.18
2022-10-16T01:57:25.524Z,6.50
2022-10-16T01:58:36.002Z,7.25
2022-10-16T01:59:49.379Z,8.10
2022-10-16T02:05:19.122Z,11.75
2022-10-16T02:06:29.319Z,9.48
2022-10-16T02:07:44.842Z,10.25
2022-10-16T02:09:37.467Z,7.68
2022-10-16T02:11:07.740Z,9.05
2022-10-16T02:12:29.461Z,6.10
2022-10-16T02:13:51.350Z,6.68
2022-10-16T02:14:55.870Z,10.13
2022-10-16T02:16:00.117Z,12.38
2022-10-16T02:17:15.813Z,8.38
2022-10-16T02:18:21.451Z,10.73
2022-10-16T02:19:25.540Z,11.15
2022-10-16T02:20:51.735Z,9.80
2022-10-16T02:22:04.220Z,6.55
2022-10-16T02:23:16.129Z,10.85
2022-10-16T02:24:38.887Z,10.85
2022-10-16T02:26:50.794Z,8.77
2022-10-16T02:28:14.424Z,13.82
2022-10-16T02:29:24.676Z,9.20
2022-10-16T02:30:39.568Z,7.57
2022-10-16T02:31:49.156Z,10.07
2022-10-16T02:32:59.251Z,8.18
2022-10-16T02:34:13.647Z,11.55
2022-10-16T02:35:23.538Z,8.55
2022-10-16T02:36:34.554Z,7.82
2022-10-16T02:37:44.667Z,9.68
2022-10-16T02:38:58.210Z,13.13
2022-10-16T02:40:10.709Z,10.10
2022-10-16T02:41:25.521Z,8.75
2022-10-16T02:42:39.916Z,4.97
2022-10-16T02:43:44.033Z,6.65
2022-10-16T02:44:49.043Z,9.85
2022-10-16T02:46:01.028Z,10.88
2022-10-16T02:47:08.689Z,9.63
2022-10-16T02:48:21.747Z,7.20
2022-10-16T02:49:38.369Z,8.93
2022-10-16T02:50:49.893Z,8.65
2022-10-16T02:51:57.336Z,9.52
2022-10-16T02:53:03.656Z,7.85
2022-10-16T02:54:14.198Z,6.90
2022-10-16T02:55:22.383Z,11.20
2022-10-16T02:56:29.162Z,8.95
2022-10-16T02:57:52.144Z,4.97
2022-10-16T02:58:59.673Z,6.68
2022-10-16T03:00:06.306Z,7.57
2022-10-16T03:01:14.920Z,11.05
2022-10-16T03:02:30.230Z,9.15
2022-10-16T03:05:03.299Z,8.02
2022-10-16T03:06:07.409Z,8.50
2022-10-16T03:07:14.503Z,8.82
2022-10-16T03:08:18.938Z,5.15
2022-10-16T03:09:22.527Z,11.35
2022-10-16T03:10:26.465Z,7.97
2022-10-16T03:11:30.323Z,5.90
2022-10-16T03:12:34.325Z,10.07
2022-10-16T03:13:38.306Z,6.18
2022-10-16T03:14:42.090Z,6.32
2022-10-16T03:15:45.814Z,6.65
2022-10-16T03:16:49.793Z,7.05
2022-10-16T03:17:53.628Z,9.13
2022-10-16T03:18:57.436Z,7.00
2022-10-16T03:20:01.193Z,8.63
2022-10-16T03:21:05.055Z,7.40
2022-10-16T03:22:08.824Z,7.75
2022-10-16T03:23:12.973Z,5.10
2022-10-16T03:24:16.778Z,5.60
2022-10-16T03:25:20.474Z,8.00
2022-10-16T03:26:24.325Z,7.15
2022-10-16T03:27:28.598Z,7.68
2022-10-16T03:28:32.712Z,6.15
2022-10-16T03:29:36.621Z,8.45
2022-10-16T03:30:40.818Z,13.90
2022-10-16T03:31:44.775Z,7.82
2022-10-16T03:32:48.640Z,8.75
2022-10-16T03:33:52.366Z,9.13
2022-10-16T03:34:57.871Z,7.35
2022-10-16T03:36:01.422Z,6.40
2022-10-16T03:37:04.978Z,8.77
2022-10-16T03:38:08.776Z,7.35
2022-10-16T03:39:12.493Z,6.95
2022-10-16T03:40:17.028Z,7.93
2022-10-16T03:41:20.907Z,9.02
2022-10-16T03:42:25.616Z,9.60
2022-10-16T03:43:29.393Z,12.15
2022-10-16T03:44:33.577Z,7.85
2022-10-16T03:45:37.456Z,6.95
2022-10-16T03:46:41.654Z,5.82
2022-10-16T03:47:45.921Z,6.30
2022-10-16T03:48:49.897Z,10.07
2022-10-16T03:49:53.815Z,6.75
2022-10-16T03:50:57.864Z,9.70
2022-10-16T03:52:01.605Z,7.38
2022-10-16T03:53:05.564Z,10.68
2022-10-16T03:54:11.521Z,7.60
2022-10-16T03:55:15.486Z,10.32
2022-10-16T03:56:19.296Z,10.77
2022-10-16T03:57:23.564Z,6.10
2022-10-16T03:58:27.892Z,6.60
2022-10-16T03:59:32.279Z,8.23
2022-10-16T04:00:36.326Z,9.23
2022-10-16T04:01:40.464Z,7.97
2022-10-16T04:02:44.097Z,7.90
2022-10-16T04:03:48.268Z,5.88
2022-10-16T04:04:52.692Z,12.65
2022-10-16T04:05:56.584Z,6.95
2022-10-16T04:07:00.431Z,10.15
2022-10-16T04:08:04.732Z,8.05
2022-10-16T04:09:08.585Z,7.07
2022-10-16T04:10:12.600Z,10.57
2022-10-16T04:11:16.397Z,10.40
2022-10-16T04:12:21.391Z,8.45
2022-10-16T04:13:25.704Z,9.43
2022-10-16T04:14:29.618Z,5.50
2022-10-16T04:15:36.333Z,7.97
2022-10-16T04:16:39.903Z,7.72
2022-10-16T04:17:44.209Z,6.18
2022-10-16T04:18:47.844Z,10.38
2022-10-16T04:19:55.046Z,7.63
2022-10-16T04:21:03.838Z,7.25
2022-10-16T04:22:07.490Z,7.03
2022-10-16T04:23:11.682Z,8.07
2022-10-16T04:24:15.327Z,6.90
2022-10-16T04:25:19.363Z,4.88
2022-10-16T04:26:23.428Z,4.95
2022-10-16T04:27:27.310Z,5.78
2022-10-16T04:28:32.931Z,4.60
2022-10-16T04:29:36.697Z,8.52
2022-10-16T04:30:41.175Z,8.05
2022-10-16T04:31:44.808Z,8.73
2022-10-16T04:32:52.980Z,8.73
2022-10-16T04:33:57.097Z,9.40
2022-10-16T04:35:01.040Z,10.77
2022-10-16T04:36:08.376Z,7.00
2022-10-16T04:37:12.118Z,8.95
2022-10-16T04:38:15.958Z,8.43
2022-10-16T04:39:20.006Z,8.13
2022-10-16T04:40:23.665Z,6.07
2022-10-16T04:41:27.506Z,6.25
2022-10-16T04:42:31.452Z,8.80
2022-10-16T04:43:35.966Z,7.25
2022-10-16T04:44:39.969Z,7.68
2022-10-16T04:45:43.765Z,6.57
2022-10-16T04:46:47.853Z,6.50
2022-10-16T04:47:51.456Z,13.90
2022-10-16T04:48:55.081Z,6.05
2022-10-16T04:50:00.379Z,7.15
2022-10-16T04:51:05.070Z,9.43
2022-10-16T04:52:10.744Z,5.47
2022-10-16T04:53:14.976Z,8.95
2022-10-16T04:54:18.537Z,7.65
2022-10-16T04:55:22.772Z,7.53
2022-10-16T04:56:26.380Z,5.28
2022-10-16T04:57:30.844Z,8.73
2022-10-16T04:58:34.681Z,6.70
2022-10-16T04:59:38.266Z,7.35
2022-10-16T05:00:41.917Z,5.53
2022-10-16T05:01:46.227Z,8.90
2022-10-16T05:02:52.158Z,6.50
2022-10-16T05:03:55.772Z,7.97
2022-10-16T05:04:59.401Z,7.47
2022-10-16T05:06:05.422Z,5.20
2022-10-16T05:07:09.491Z,5.55
2022-10-16T05:08:15.700Z,5.68
2022-10-16T05:09:19.914Z,12.13
2022-10-16T05:10:23.748Z,8.73
2022-10-16T05:11:27.775Z,6.95
2022-10-16T05:12:32.629Z,7.05
2022-10-16T05:13:36.530Z,6.45
2022-10-16T05:14:40.293Z,5.47
2022-10-16T05:15:49.853Z,8.65
2022-10-16T05:16:54.013Z,10.00
2022-10-16T05:17:57.912Z,7.80
2022-10-16T05:19:26.173Z,10.20
2022-10-16T05:20:25.776Z,16.23
2022-10-16T05:21:29.625Z,16.73
2022-10-16T05:22:33.819Z,28.95
2022-10-16T05:23:37.618Z,21.17
2022-10-16T05:24:41.716Z,18.15
2022-10-16T05:25:59.511Z,15.30
2022-10-16T05:27:03.303Z,8.18
2022-10-16T05:28:07.102Z,9.77
2022-10-16T05:29:13.234Z,6.07
2022-10-16T05:30:18.725Z,7.75
2022-10-16T05:31:23.631Z,6.53
2022-10-16T05:32:27.491Z,8.18
2022-10-16T05:33:31.416Z,12.13
2022-10-16T05:34:35.254Z,9.07
2022-10-16T05:35:39.112Z,18.73
2022-10-16T05:36:43.200Z,8.30
2022-10-16T05:37:47.761Z,11.27
2022-10-16T05:38:53.247Z,17.42
2022-10-16T05:39:57.233Z,5.82
2022-10-16T05:41:00.965Z,8.55
2022-10-16T05:42:06.293Z,8.52
2022-10-16T05:43:11.800Z,10.35
2022-10-16T05:44:16.522Z,8.52
2022-10-16T05:45:20.312Z,6.82
2022-10-16T05:46:24.048Z,6.85
2022-10-16T05:47:28.722Z,7.10
2022-10-16T05:48:34.674Z,7.47
2022-10-16T05:49:41.245Z,8.60
2022-10-16T05:50:45.318Z,7.85
2022-10-16T05:51:49.334Z,12.25
2022-10-16T05:52:53.317Z,7.63
2022-10-16T05:53:56.863Z,4.75
2022-10-16T05:55:01.094Z,9.57
2022-10-16T05:56:06.695Z,7.18
2022-10-16T05:57:12.877Z,6.88
2022-10-16T05:58:16.598Z,5.72
2022-10-16T05:59:20.323Z,5.60
2022-10-16T06:00:24.151Z,7.18
2022-10-16T06:01:27.982Z,12.77
2022-10-16T06:02:32.013Z,7.47
2022-10-16T06:03:36.647Z,6.25
2022-10-16T06:04:40.415Z,5.80
2022-10-16T06:05:44.319Z,6.15
2022-10-16T06:06:48.358Z,12.32
2022-10-16T06:07:51.858Z,6.20
2022-10-16T06:08:57.388Z,6.53
2022-10-16T06:10:01.126Z,8.02
2022-10-16T06:11:08.816Z,8.38
2022-10-16T06:12:13.011Z,12.15
2022-10-16T06:13:17.536Z,5.05
2022-10-16T06:14:21.032Z,7.25
2022-10-16T06:15:24.868Z,5.13
2022-10-16T06:16:29.189Z,6.50
2022-10-16T06:17:33.278Z,7.00
2022-10-16T06:18:37.258Z,5.90
2022-10-16T06:19:41.499Z,7.05
2022-10-16T06:20:45.141Z,10.05
2022-10-16T06:21:49.255Z,6.57
2022-10-16T06:22:52.761Z,7.10
2022-10-16T06:23:58.005Z,6.82
2022-10-16T06:25:01.532Z,11.18
2022-10-16T06:26:15.062Z,5.05
2022-10-16T06:27:18.825Z,12.18
2022-10-16T06:28:22.448Z,8.40
2022-10-16T06:29:26.137Z,5.88
2022-10-16T06:30:29.681Z,9.38
2022-10-16T06:31:34.503Z,9.80
2022-10-16T06:32:38.551Z,7.13
2022-10-16T06:33:42.812Z,7.55
2022-10-16T06:34:46.600Z,10.60
2022-10-16T06:35:50.368Z,13.75
2022-10-16T06:36:54.671Z,8.80
2022-10-16T06:37:58.604Z,8.60
2022-10-16T06:39:02.511Z,7.22
2022-10-16T06:40:07.430Z,8.20
2022-10-16T06:41:21.998Z,9.27
2022-10-16T06:42:26.373Z,13.60
2022-10-16T06:43:34.545Z,13.93
2022-10-16T06:44:38.484Z,11.95
2022-10-16T06:45:42.033Z,10.93
2022-10-16T06:46:46.036Z,7.35
2022-10-16T06:47:49.842Z,9.85
2022-10-16T06:48:57.160Z,14.13
2022-10-16T06:50:01.096Z,12.80
2022-10-16T06:51:19.511Z,20.50
2022-10-16T06:52:23.678Z,12.18
2022-10-16T06:53:39.638Z,10.32
2022-10-16T06:54:48.094Z,6.95
2022-10-16T06:55:53.090Z,16.05
2022-10-16T06:56:57.110Z,7.32
2022-10-16T06:58:00.768Z,8.10
2022-10-16T06:59:05.793Z,10.32
2022-10-16T07:00:11.031Z,5.72
2022-10-16T07:01:22.686Z,15.13
2022-10-16T07:02:26.761Z,7.65
2022-10-16T07:03:31.010Z,6.13
2022-10-16T07:04:34.956Z,8.38
2022-10-16T07:05:44.033Z,8.65
2022-10-16T07:06:48.560Z,6.72
2022-10-16T07:07:52.649Z,7.25
2022-10-16T07:08:57.036Z,6.70
2022-10-16T07:10:00.929Z,7.15
2022-10-16T07:11:09.565Z,5.05
2022-10-16T07:12:13.822Z,5.63
2022-10-16T07:13:17.912Z,4.78
2022-10-16T07:14:23.299Z,6.43
2022-10-16T07:15:28.028Z,6.55
2022-10-16T07:16:34.085Z,8.90
2022-10-16T07:17:37.991Z,5.18
2022-10-16T07:18:46.054Z,6.60
2022-10-16T07:19:50.112Z,9.85
2022-10-16T07:20:54.717Z,7.55
2022-10-16T07:21:58.681Z,10.77
2022-10-16T07:23:02.729Z,7.50
2022-10-16T07:24:11.912Z,6.97
2022-10-16T07:25:16.155Z,9.50
2022-10-16T07:26:20.227Z,9.57
2022-10-16T07:27:25.285Z,5.78
2022-10-16T07:28:30.349Z,9.02
2022-10-16T07:29:34.354Z,9.25
2022-10-16T07:30:38.351Z,12.70
2022-10-16T07:31:43.684Z,6.43
2022-10-16T07:32:48.054Z,9.20
2022-10-16T07:33:52.842Z,10.73
2022-10-16T07:34:56.882Z,10.43
2022-10-16T07:36:00.703Z,8.68
2022-10-16T07:37:04.312Z,9.13
2022-10-16T07:38:08.232Z,5.70
2022-10-16T07:39:11.813Z,7.55
2022-10-16T07:40:15.783Z,8.68
2022-10-16T07:41:21.113Z,11.70
2022-10-16T07:42:25.298Z,8.75
2022-10-16T07:43:29.441Z,6.80
2022-10-16T07:44:33.186Z,8.63
2022-10-16T07:45:37.667Z,9.27
2022-10-16T07:46:53.542Z,9.75
2022-10-16T07:48:00.413Z,10.95
2022-10-16T07:49:08.192Z,9.30
2022-10-16T07:50:19.189Z,4.32
2022-10-16T07:51:28.781Z,6.53
2022-10-16T07:52:34.616Z,8.35
2022-10-16T07:53:41.421Z,8.52
2022-10-16T07:54:49.434Z,8.25
2022-10-16T07:56:04.602Z,7.07
2022-10-16T07:57:11.818Z,7.70
2022-10-16T07:58:19.503Z,9.30
2022-10-16T07:59:27.333Z,8.02
2022-10-16T08:00:35.643Z,8.15
2022-10-16T08:01:43.393Z,5.40
2022-10-16T08:02:51.803Z,10.88
2022-10-16T08:05:12.699Z,9.13
2022-10-16T08:06:19.737Z,7.68
2022-10-16T08:07:58.274Z,7.25
2022-10-16T08:09:09.773Z,5.13
2022-10-16T08:10:20.275Z,8.80
2022-10-16T08:11:24.708Z,6.28
2022-10-16T08:12:29.693Z,5.85
2022-10-16T08:13:34.024Z,7.78
2022-10-16T08:14:37.796Z,10.45
2022-10-16T08:15:41.899Z,13.48
2022-10-16T08:16:45.838Z,10.50
2022-10-16T08:18:05.575Z,10.45
2022-10-16T08:19:09.674Z,7.32
2022-10-16T08:20:13.761Z,8.65
2022-10-16T08:21:21.864Z,7.03
2022-10-16T08:22:29.349Z,11.43
2022-10-16T08:23:37.906Z,4.88
2022-10-16T08:24:42.381Z,5.18
2022-10-16T08:25:46.012Z,6.22
2022-10-16T08:26:49.506Z,6.18
2022-10-16T08:27:53.416Z,6.95
2022-10-16T08:28:57.705Z,5.63
2022-10-16T08:30:01.464Z,8.38
2022-10-16T08:32:18.990Z,7.70
2022-10-16T08:33:22.684Z,6.03
2022-10-16T08:34:26.218Z,5.32
2022-10-16T08:35:30.500Z,7.28
2022-10-16T08:36:34.311Z,12.70
2022-10-16T08:37:39.357Z,5.10
2022-10-16T08:38:43.933Z,7.85
2022-10-16T08:39:47.644Z,7.55
2022-10-16T08:40:53.726Z,6.50
2022-10-16T08:42:27.418Z,6.07
2022-10-16T08:44:25.060Z,4.55
2022-10-16T08:46:05.976Z,7.55
2022-10-16T08:47:35.669Z,5.93
2022-10-16T08:48:56.405Z,4.22
2022-10-16T08:50:11.211Z,6.00
2022-10-16T08:51:49.380Z,6.55
2022-10-16T08:52:53.542Z,5.18
2022-10-16T08:54:00.550Z,8.18
2022-10-16T08:55:06.455Z,8.45
2022-10-16T08:56:10.491Z,5.22
2022-10-16T08:57:28.942Z,7.40
2022-10-16T08:58:32.945Z,5.80
2022-10-16T08:59:39.195Z,5.88
2022-10-16T09:00:48.085Z,5.32
2022-10-16T09:01:53.902Z,6.38
2022-10-16T09:03:27.259Z,8.48
2022-10-16T09:05:07.820Z,8.15
2022-10-16T09:06:55.067Z,5.47
2022-10-16T09:08:35.173Z,4.90
2022-10-16T09:09:50.519Z,4.85
2022-10-16T09:11:10.017Z,7.75
2022-10-16T09:12:38.802Z,5.28
2022-10-16T09:14:23.945Z,6.00
2022-10-16T09:15:40.759Z,7.22
2022-10-16T09:16:55.831Z,3.72
2022-10-16T09:18:16.792Z,4.18
2022-10-16T09:19:43.132Z,9.45
2022-10-16T09:21:11.736Z,3.50
2022-10-16T09:22:23.793Z,7.55
2022-10-16T09:23:37.831Z,4.90
2022-10-16T09:24:41.641Z,3.35
2022-10-16T09:25:51.305Z,6.72
2022-10-16T09:26:54.947Z,8.82
2022-10-16T09:27:58.582Z,9.02
2022-10-16T09:29:04.060Z,9.05
2022-10-16T09:30:18.543Z,5.45
2022-10-16T09:31:24.288Z,4.07
2022-10-16T09:32:30.314Z,4.63
2022-10-16T09:33:42.508Z,8.00
2022-10-16T09:34:55.344Z,5.05
2022-10-16T09:36:00.705Z,6.10
2022-10-16T09:37:15.710Z,6.13
2022-10-16T09:38:33.132Z,3.03
2022-10-16T09:40:07.471Z,7.53
2022-10-16T09:41:22.364Z,3.65
2022-10-16T09:42:36.131Z,7.97
2022-10-16T09:43:59.561Z,7.47
2022-10-16T09:45:04.931Z,3.47
2022-10-16T09:46:30.851Z,5.78
2022-10-16T09:47:43.658Z,3.88
2022-10-16T09:48:53.048Z,5.80
2022-10-16T09:50:27.485Z,4.72
2022-10-16T09:51:39.019Z,7.10
2022-10-16T09:52:42.665Z,4.35
2022-10-16T09:53:49.350Z,6.13
2022-10-16T09:54:59.972Z,6.68
2022-10-16T09:56:10.316Z,4.47
2022-10-16T09:57:17.869Z,3.05
2022-10-16T09:58:25.987Z,3.22
2022-10-16T09:59:32.145Z,5.78
2022-10-16T10:00:36.192Z,6.35
2022-10-16T10:01:43.006Z,3.53
2022-10-16T10:02:48.222Z,4.05
2022-10-16T10:04:01.717Z,4.28
2022-10-16T10:05:20.401Z,2.20
2022-10-16T10:06:39.317Z,4.47
2022-10-16T10:07:50.428Z,4.13
2022-10-16T10:09:20.863Z,3.13
2022-10-16T10:10:43.736Z,5.13
2022-10-16T10:12:06.071Z,2.92
2022-10-16T10:13:26.924Z,3.97
2022-10-16T10:14:44.222Z,7.40
2022-10-16T10:15:49.929Z,3.30
2022-10-16T10:17:06.060Z,4.25
2022-10-16T10:18:25.034Z,6.60
2022-10-16T10:19:32.775Z,3.13
2022-10-16T10:20:39.939Z,3.65
2022-10-16T10:21:43.768Z,4.65
2022-10-16T10:22:47.391Z,3.40
2022-10-16T10:24:00.929Z,4.68
2022-10-16T10:25:13.596Z,3.30
2022-10-16T10:26:28.859Z,3.42
2022-10-16T10:27:58.731Z,3.78
2022-10-16T10:29:50.405Z,6.35
2022-10-16T10:30:58.452Z,4.03
2022-10-16T10:32:50.408Z,3.08
2022-10-16T10:34:15.400Z,4.47
2022-10-16T10:35:34.919Z,5.07
2022-10-16T10:36:43.409Z,3.17
2022-10-16T10:38:22.362Z,2.45
2022-10-16T10:39:53.209Z,4.75
2022-10-16T10:41:37.127Z,11.52
2022-10-16T10:43:07.236Z,5.07
2022-10-16T10:44:22.991Z,5.05
2022-10-16T10:45:48.868Z,4.90
2022-10-16T10:47:36.989Z,4.13
2022-10-16T10:49:18.890Z,5.65
2022-10-16T10:50:44.260Z,3.55
2022-10-16T10:52:12.481Z,5.75
2022-10-16T10:53:57.301Z,3.65
2022-10-16T10:55:36.136Z,4.15
2022-10-16T10:57:03.874Z,2.13
2022-10-16T10:58:55.710Z,2.83
2022-10-16T11:00:50.037Z,3.05
2022-10-16T11:02:47.189Z,2.63
2022-10-16T11:04:31.065Z,3.00
2022-10-16T11:05:48.807Z,3.33
2022-10-16T11:07:02.504Z,4.90
2022-10-16T11:08:28.900Z,4.72
2022-10-16T11:09:58.517Z,2.85
2022-10-16T11:11:43.728Z,3.30
2022-10-16T11:13:15.436Z,4.25
2022-10-16T11:14:50.965Z,7.63
2022-10-16T11:16:04.491Z,4.45
2022-10-16T11:17:30.703Z,6.13
2022-10-16T11:19:14.859Z,3.47
2022-10-16T11:20:51.306Z,3.50
2022-10-16T11:22:05.002Z,3.20
2022-10-16T11:23:46.667Z,4.05
2022-10-16T11:25:25.019Z,2.38
2022-10-16T11:26:38.199Z,3.53
2022-10-16T11:28:12.369Z,3.17
2022-10-16T11:29:30.752Z,2.35
2022-10-16T11:31:16.651Z,4.28
2022-10-16T11:32:52.047Z,6.38
2022-10-16T11:34:28.930Z,1.70
2022-10-16T11:36:16.272Z,4.35
2022-10-16T11:37:44.726Z,3.67
2022-10-16T11:39:27.742Z,3.20
2022-10-16T11:42:48.737Z,3.28
2022-10-16T11:44:21.822Z,4.63
2022-10-16T11:46:12.982Z,4.32
2022-10-16T11:47:58.674Z,3.25
2022-10-16T11:49:49.666Z,3.08
2022-10-16T11:51:37.025Z,2.72
2022-10-16T11:53:14.511Z,2.97
2022-10-16T11:54:49.594Z,5.72
2022-10-16T11:55:53.574Z,4.18
2022-10-16T11:57:10.192Z,2.88
2022-10-16T11:58:54.052Z,2.10
2022-10-16T12:00:12.143Z,3.80
2022-10-16T12:01:48.933Z,3.40
2022-10-16T12:03:49.299Z,2.80
2022-10-16T12:05:10.496Z,3.83
2022-10-16T12:06:34.238Z,3.05
2022-10-16T12:07:54.291Z,2.00
2022-10-16T12:09:04.157Z,6.85
2022-10-16T12:10:29.072Z,5.95
2022-10-16T12:11:40.022Z,3.42
2022-10-16T12:12:46.469Z,1.98
2022-10-16T12:13:51.064Z,2.67
2022-10-16T12:15:22.484Z,3.47
2022-10-16T12:16:57.943Z,3.00
2022-10-16T12:18:03.635Z,2.00
2022-10-16T12:19:18.535Z,2.30
2022-10-16T12:20:37.622Z,2.67
2022-10-16T12:21:43.106Z,2.65
2022-10-16T12:23:02.794Z,2.08
2022-10-16T12:24:07.603Z,3.30
2022-10-16T12:25:37.266Z,2.72
2022-10-16T12:26:46.902Z,3.58
2022-10-16T12:28:02.289Z,3.25
2022-10-16T12:29:45.583Z,2.80
2022-10-16T12:31:02.592Z,1.92
2022-10-16T12:32:45.687Z,2.42
2022-10-16T12:34:04.461Z,2.38
2022-10-16T12:35:24.173Z,3.58
2022-10-16T12:36:35.561Z,1.98
2022-10-16T12:37:40.182Z,2.60
2022-10-16T12:38:56.376Z,2.95
2022-10-16T12:40:13.056Z,7.88
2022-10-16T12:41:35.826Z,5.72
2022-10-16T12:42:40.264Z,3.10
2022-10-16T12:43:48.968Z,3.25
2022-10-16T12:44:53.620Z,3.85
2022-10-16T12:46:23.702Z,6.80
2022-10-16T12:47:33.715Z,5.60
2022-10-16T12:48:48.599Z,3.63
2022-10-16T12:50:01.449Z,6.43
2022-10-16T12:51:25.859Z,4.22
2022-10-16T12:52:39.375Z,3.97
2022-10-16T12:53:43.306Z,6.20
2022-10-16T12:54:48.197Z,2.50
2022-10-16T12:56:25.516Z,3.75
2022-10-16T12:58:11.550Z,4.15
2022-10-16T12:59:45.529Z,3.10
2022-10-16T13:01:11.207Z,3.65
2022-10-16T13:02:43.353Z,1.95
2022-10-16T13:04:33.054Z,3.42
2022-10-16T13:05:54.790Z,4.63
2022-10-16T13:07:51.594Z,4.47
2022-10-16T13:09:13.386Z,6.88
2022-10-16T13:10:40.871Z,2.03
2022-10-16T13:12:41.988Z,3.85
2022-10-16T13:14:03.207Z,5.72
2022-10-16T13:15:21.857Z,1.98
2022-10-16T13:16:52.705Z,3.30
2022-10-16T13:18:22.658Z,1.42
2022-10-16T13:20:05.960Z,2.63
2022-10-16T13:21:43.980Z,3.63
2022-10-16T13:23:30.381Z,3.22
2022-10-16T13:25:13.808Z,1.70
2022-10-16T13:27:02.685Z,2.33
2022-10-16T13:28:14.448Z,1.90
2022-10-16T13:29:22.222Z,2.65
2022-10-16T13:30:46.140Z,2.85
2022-10-16T13:31:51.407Z,3.50
2022-10-16T13:33:27.096Z,4.40
2022-10-16T13:34:36.713Z,1.52
2022-10-16T13:36:01.605Z,7.10
2022-10-16T13:37:26.649Z,7.35
2022-10-16T13:38:38.772Z,5.55
2022-10-16T13:39:47.932Z,2.03
2022-10-16T13:41:07.575Z,4.00
2022-10-16T13:42:35.632Z,3.90
2022-10-16T13:43:57.257Z,2.08
2022-10-16T13:45:29.070Z,6.50
2022-10-16T13:46:38.527Z,2.30
2022-10-16T13:47:43.274Z,2.10
2022-10-16T13:49:04.458Z,1.67
2022-10-16T13:50:21.896Z,1.95
2022-10-16T13:51:27.743Z,2.05
2022-10-16T13:52:33.972Z,2.33
2022-10-16T13:53:38.841Z,2.00
2022-10-16T13:54:48.644Z,2.03
2022-10-16T13:56:03.054Z,2.17
2022-10-16T13:57:26.864Z,2.28
2022-10-16T13:58:36.061Z,1.45
2022-10-16T13:59:59.023Z,1.33
2022-10-16T14:01:32.496Z,5.32
2022-10-16T14:02:41.421Z,3.05
2022-10-16T14:03:54.748Z,10.15
2022-10-16T14:04:59.908Z,1.63
2022-10-16T14:06:15.047Z,2.72
2022-10-16T14:07:35.058Z,1.80
2022-10-16T14:09:22.929Z,4.18
2022-10-16T14:10:35.875Z,2.15
2022-10-16T14:12:09.768Z,4.55
2022-10-16T14:14:00.739Z,1.85
2022-10-16T14:15:06.997Z,3.10
2022-10-16T14:16:20.196Z,1.95
2022-10-16T14:17:32.306Z,3.17
2022-10-16T14:18:44.537Z,4.07
2022-10-16T14:20:08.225Z,3.20
2022-10-16T14:21:18.299Z,2.08
2022-10-16T14:22:36.630Z,1.85
2022-10-16T14:23:42.377Z,3.30
2022-10-16T14:24:46.049Z,1.75
2022-10-16T14:25:50.069Z,4.47
2022-10-16T14:26:56.123Z,3.33
2022-10-16T14:28:23.162Z,2.80
2022-10-16T14:29:31.157Z,2.63
2022-10-16T14:30:37.978Z,2.78
2022-10-16T14:32:04.962Z,6.03
2022-10-16T14:33:34.166Z,2.15
2022-10-16T14:34:41.531Z,2.92
2022-10-16T14:35:46.074Z,7.50
2022-10-16T14:36:49.707Z,2.58
2022-10-16T14:37:58.981Z,2.20
2022-10-16T14:39:26.947Z,2.58
2022-10-16T14:40:38.808Z,1.58
2022-10-16T14:41:47.806Z,2.10
2022-10-16T14:42:52.026Z,2.03
2022-10-16T14:44:04.092Z,3.00
2022-10-16T14:45:12.873Z,3.47
2022-10-16T14:46:30.975Z,3.33
2022-10-16T14:47:35.047Z,2.58
2022-10-16T14:48:47.956Z,1.77
2022-10-16T14:49:53.106Z,1.67
2022-10-16T14:50:57.542Z,3.72
2022-10-16T14:52:06.854Z,3.92
2022-10-16T14:53:25.311Z,2.20
2022-10-16T14:54:29.655Z,3.50
2022-10-16T14:55:38.016Z,7.43
2022-10-16T14:56:57.572Z,3.72
2022-10-16T14:58:05.579Z,1.58
2022-10-16T14:59:43.507Z,2.55
2022-10-16T15:01:14.990Z,2.55
2022-10-16T15:02:36.682Z,2.22
2022-10-16T15:04:15.557Z,4.97
2022-10-16T15:05:29.169Z,2.90
2022-10-16T15:06:35.384Z,2.28
2022-10-16T15:07:43.926Z,1.52
2022-10-16T15:08:54.988Z,2.17
2022-10-16T15:10:00.667Z,4.18
2022-10-16T15:11:21.810Z,2.55
2022-10-16T15:12:52.003Z,4.22
2022-10-16T15:13:56.997Z,5.25
2022-10-16T15:15:25.291Z,1.90
2022-10-16T15:16:29.134Z,3.42
2022-10-16T15:17:43.435Z,2.60
2022-10-16T15:18:48.415Z,2.35
2022-10-16T15:20:00.026Z,3.55
2022-10-16T15:21:09.051Z,3.00
2022-10-16T15:22:25.512Z,5.82
2022-10-16T15:23:34.152Z,1.45
2022-10-16T15:26:09.001Z,5.97
2022-10-16T15:27:17.562Z,1.85
2022-10-16T15:28:29.740Z,2.42
2022-10-16T15:29:37.100Z,2.45
2022-10-16T15:30:49.667Z,1.67
2022-10-16T15:31:56.984Z,3.85
2022-10-16T15:33:14.883Z,1.52
2022-10-16T15:34:22.451Z,6.18
2022-10-16T15:35:35.798Z,2.65
2022-10-16T15:36:43.907Z,2.97
2022-10-16T15:37:50.164Z,2.00
2022-10-16T15:39:00.407Z,3.80
2022-10-16T15:40:13.174Z,3.20
2022-10-16T15:41:28.439Z,1.63
2022-10-16T15:42:32.437Z,3.05
2022-10-16T15:43:36.403Z,1.77
2022-10-16T15:44:40.017Z,1.90
2022-10-16T15:45:44.119Z,4.72
2022-10-16T15:46:49.187Z,3.20
2022-10-16T15:47:52.910Z,4.78
2022-10-16T15:48:59.950Z,1.25
2022-10-16T15:50:05.350Z,1.83
2022-10-16T15:51:13.388Z,2.00
2022-10-16T15:52:18.044Z,2.25
2022-10-16T15:53:30.623Z,2.72
2022-10-16T15:54:34.894Z,2.35
2022-10-16T15:55:39.172Z,1.90
2022-10-16T15:56:43.199Z,5.53
2022-10-16T15:57:49.923Z,2.05
2022-10-16T15:58:58.529Z,3.65
2022-10-16T16:00:06.600Z,3.92
2022-10-16T16:01:19.547Z,2.45
2022-10-16T16:02:24.676Z,1.90
2022-10-16T16:03:32.695Z,1.98
2022-10-16T16:04:43.940Z,1.75
2022-10-16T16:05:48.445Z,4.70
2022-10-16T16:06:52.378Z,2.95
2022-10-16T16:07:58.240Z,2.25
2022-10-16T16:09:05.259Z,2.47
2022-10-16T16:10:12.722Z,2.03
2022-10-16T16:11:30.042Z,3.83
2022-10-16T16:12:39.249Z,3.08
2022-10-16T16:13:46.291Z,4.50
2022-10-16T16:14:50.262Z,4.53
2022-10-16T16:15:54.780Z,6.03